Time;durP1;ratioP1;P1;durP2;ratioP2;P2;SDS_P1;SDS_P2;PMS_P1;PMS_P2;Temp;Humidity;BMP_temperature;BMP_pressure;BME280_temperature;BME280_humidity;BME280_pressure;Samples;Min_cycle;Max_cycle;Signal;HPM_P1;HPM_P2
2022/04/29 00:01:30;;;;;;;15.35;5.60;;;7.90;99.90;;;;;;5073514;28;20500;-69
2022/04/29 00:03:56;;;;;;;12.55;5.60;;;7.80;99.90;;;;;;5056820;28;20079;-69
2022/04/29 00:06:21;;;;;;;12.50;5.80;;;7.70;99.90;;;;;;5073315;28;20063;-69
2022/04/29 00:08:47;;;;;;;13.57;5.38;;;7.80;99.90;;;;;;5073347;28;20123;-69
2022/04/29 00:11:12;;;;;;;11.95;5.80;;;7.80;99.90;;;;;;5073593;28;20488;-69
2022/04/29 00:13:38;;;;;;;15.98;5.82;;;7.70;99.90;;;;;;5056678;28;20404;-69
2022/04/29 00:16:05;;;;;;;10.55;5.40;;;7.70;99.90;;;;;;5073190;28;20033;-70
2022/04/29 00:18:31;;;;;;;12.18;5.97;;;7.70;99.90;;;;;;5073142;28;20044;-70
2022/04/29 00:20:57;;;;;;;11.07;6.00;;;7.60;99.90;;;;;;5073097;28;20044;-70
2022/04/29 00:23:22;;;;;;;10.82;5.82;;;7.60;99.90;;;;;;5073038;28;20127;-70
2022/04/29 00:25:48;;;;;;;13.52;6.15;;;7.50;99.90;;;;;;5072964;28;20045;-70
2022/04/29 00:28:14;;;;;;;11.27;5.93;;;7.50;99.90;;;;;;5072932;28;20132;-70
2022/04/29 00:30:40;;;;;;;13.25;6.20;;;7.50;99.90;;;;;;5056573;28;20576;-69
2022/04/29 00:33:05;;;;;;;10.23;6.03;;;7.50;99.90;;;;;;5073121;28;20127;-70
2022/04/29 00:35:31;;;;;;;13.95;6.43;;;7.40;99.90;;;;;;5072754;28;20439;-70
2022/04/29 00:37:58;;;;;;;11.82;5.45;;;7.40;99.90;;;;;;5073037;28;20032;-70
2022/04/29 00:40:30;;;;;;;15.63;6.15;;;7.40;99.90;;;;;;5073050;28;20083;-69
2022/04/29 00:42:56;;;;;;;12.80;5.80;;;7.40;99.90;;;;;;5072689;28;20076;-70
2022/04/29 00:45:23;;;;;;;16.23;5.90;;;7.30;99.90;;;;;;5055920;28;20131;-70
2022/04/29 00:47:50;;;;;;;14.20;5.85;;;7.30;99.90;;;;;;5072576;28;20404;-70
2022/04/29 00:50:18;;;;;;;13.15;5.78;;;7.20;99.90;;;;;;5072817;28;20045;-70
2022/04/29 00:52:47;;;;;;;12.20;5.75;;;7.20;99.90;;;;;;5072492;28;20115;-70
2022/04/29 00:55:14;;;;;;;11.68;5.72;;;7.20;99.90;;;;;;5072475;28;20037;-70
2022/04/29 00:58:07;;;;;;;10.95;6.07;;;7.20;99.90;;;;;;5055380;28;20104;-70
2022/04/29 01:00:34;;;;;;;10.93;5.88;;;7.20;99.90;;;;;;5072452;28;20086;-70
2022/04/29 01:03:01;;;;;;;11.23;5.45;;;7.10;99.90;;;;;;5055721;28;20131;-70
2022/04/29 01:05:27;;;;;;;11.00;5.93;;;7.10;99.90;;;;;;5055849;28;20041;-70
2022/04/29 01:07:53;;;;;;;11.68;5.63;;;7.10;99.90;;;;;;5055712;28;20040;-70
2022/04/29 01:10:21;;;;;;;14.13;6.22;;;7.00;99.90;;;;;;5072269;28;20037;-70
2022/04/29 01:12:50;;;;;;;12.43;6.30;;;7.10;99.90;;;;;;5072508;28;20046;-70
2022/04/29 01:15:18;;;;;;;12.15;6.22;;;7.00;99.90;;;;;;5072039;28;20082;-70
2022/04/29 01:17:45;;;;;;;12.20;5.82;;;7.00;99.90;;;;;;5055509;28;20044;-70
2022/04/29 01:20:13;;;;;;;31.00;6.72;;;7.00;99.90;;;;;;5072172;28;20037;-69
2022/04/29 01:22:39;;;;;;;11.75;5.68;;;7.00;99.90;;;;;;5055326;28;20090;-69
2022/04/29 01:25:05;;;;;;;10.18;6.43;;;6.90;99.90;;;;;;5071949;28;20049;-69
2022/04/29 01:27:30;;;;;;;8.43;5.82;;;6.90;99.90;;;;;;5071953;28;20090;-69
2022/04/29 01:30:09;;;;;;;9.82;6.10;;;6.90;99.90;;;;;;5072235;28;20040;-69
2022/04/29 01:32:36;;;;;;;13.32;6.47;;;7.00;99.90;;;;;;5071985;28;20036;-69
2022/04/29 01:35:03;;;;;;;13.00;6.55;;;6.90;99.90;;;;;;5071864;28;20039;-69
2022/04/29 01:37:29;;;;;;;9.68;5.93;;;6.90;99.90;;;;;;5071925;28;20040;-69
2022/04/29 01:39:55;;;;;;;10.35;6.47;;;6.90;99.90;;;;;;5071880;28;20485;-69
2022/04/29 01:42:21;;;;;;;11.95;6.38;;;6.90;99.90;;;;;;5072132;28;20083;-69
2022/04/29 01:44:47;;;;;;;10.77;6.20;;;6.90;99.90;;;;;;5071785;28;20485;-69
2022/04/29 01:47:13;;;;;;;10.80;6.50;;;6.90;99.90;;;;;;5071605;28;20123;-69
2022/04/29 01:49:39;;;;;;;13.35;7.05;;;6.90;99.90;;;;;;5071745;28;20119;-69
2022/04/29 01:52:05;;;;;;;10.52;6.28;;;6.80;99.90;;;;;;5071780;28;20040;-69
2022/04/29 01:54:31;;;;;;;11.30;6.70;;;6.80;99.90;;;;;;5071733;28;20033;-69
2022/04/29 01:56:57;;;;;;;14.15;7.15;;;6.70;99.90;;;;;;5054942;28;20055;-69
2022/04/29 01:59:22;;;;;;;12.27;6.93;;;6.60;99.90;;;;;;5071990;28;20076;-69
2022/04/29 02:01:48;;;;;;;13.15;7.65;;;6.60;99.90;;;;;;5071901;28;20036;-69
2022/04/29 02:04:14;;;;;;;14.13;6.90;;;6.50;99.90;;;;;;5071648;28;20039;-69
2022/04/29 02:06:41;;;;;;;12.10;6.65;;;6.50;99.90;;;;;;5054750;28;20040;-69
2022/04/29 02:09:07;;;;;;;11.15;6.97;;;6.50;99.90;;;;;;5072912;28;20037;-69
2022/04/29 02:11:34;;;;;;;14.10;7.47;;;6.40;99.90;;;;;;5075622;28;20047;-69
2022/04/29 02:14:00;;;;;;;10.90;6.80;;;6.50;99.90;;;;;;5075548;28;20041;-69
2022/04/29 02:16:25;;;;;;;11.90;7.25;;;6.40;99.90;;;;;;5058764;28;20043;-69
2022/04/29 02:18:51;;;;;;;11.27;6.63;;;6.30;99.90;;;;;;5075476;28;20204;-70
2022/04/29 02:21:17;;;;;;;10.90;6.82;;;6.30;99.90;;;;;;5075427;28;20090;-70
2022/04/29 02:23:43;;;;;;;10.60;6.88;;;6.30;99.90;;;;;;5058602;28;20040;-69
2022/04/29 02:26:08;;;;;;;11.45;6.97;;;6.30;99.90;;;;;;5075266;28;20131;-69
2022/04/29 02:28:34;;;;;;;10.32;6.53;;;6.30;99.90;;;;;;5075189;28;20127;-69
2022/04/29 02:31:00;;;;;;;11.35;6.93;;;6.30;99.90;;;;;;5058567;28;20036;-69
2022/04/29 02:33:27;;;;;;;9.73;6.63;;;6.30;99.90;;;;;;5075163;28;20048;-69
2022/04/29 02:35:53;;;;;;;11.18;7.35;;;6.30;99.90;;;;;;5075288;28;20124;-69
2022/04/29 02:38:19;;;;;;;11.45;7.55;;;6.20;99.90;;;;;;5075046;28;20412;-70
2022/04/29 02:40:44;;;;;;;15.15;7.70;;;6.30;99.90;;;;;;5075316;28;20040;-69
2022/04/29 02:43:10;;;;;;;13.30;8.57;;;6.30;99.90;;;;;;5074952;28;20458;-69
2022/04/29 02:45:36;;;;;;;14.20;8.18;;;6.20;99.90;;;;;;5058474;28;20077;-70
2022/04/29 02:48:01;;;;;;;10.55;7.70;;;6.20;99.90;;;;;;5074863;28;20036;-69
2022/04/29 02:50:27;;;;;;;12.80;7.93;;;6.20;99.90;;;;;;5074861;28;20043;-69
2022/04/29 02:52:53;;;;;;;17.15;8.85;;;6.20;99.90;;;;;;5058195;28;20041;-69
2022/04/29 02:55:19;;;;;;;10.73;8.02;;;6.20;99.90;;;;;;5058088;28;20036;-69
2022/04/29 02:57:44;;;;;;;12.45;8.27;;;6.20;99.90;;;;;;5074743;28;20051;-69
2022/04/29 03:00:10;;;;;;;13.02;8.60;;;6.20;99.90;;;;;;5058329;28;20037;-69
2022/04/29 03:02:36;;;;;;;11.20;8.20;;;6.20;99.90;;;;;;5074843;28;20044;-69
2022/04/29 03:05:05;;;;;;;10.57;8.15;;;6.20;99.90;;;;;;5074525;28;20040;-69
2022/04/29 03:07:30;;;;;;;16.80;9.45;;;6.20;99.90;;;;;;5057863;28;20040;-69
2022/04/29 03:09:56;;;;;;;10.85;8.25;;;6.20;99.90;;;;;;5074569;28;20106;-69
2022/04/29 03:12:23;;;;;;;13.88;8.88;;;6.20;99.90;;;;;;5057790;28;20040;-69
2022/04/29 03:14:49;;;;;;;13.93;8.73;;;6.20;99.90;;;;;;5074382;28;20381;-69
2022/04/29 03:20:01;;;;;;;14.05;8.57;;;6.10;99.90;;;;;;5073936;28;20129;-69
2022/04/29 03:22:27;;;;;;;15.40;8.82;;;6.10;99.90;;;;;;5074298;28;20047;-69
2022/04/29 03:24:53;;;;;;;12.57;8.65;;;6.10;99.90;;;;;;5074195;28;20040;-69
2022/04/29 03:27:19;;;;;;;12.82;7.78;;;6.10;99.90;;;;;;5074124;28;20451;-69
2022/04/29 03:29:44;;;;;;;13.02;8.23;;;6.10;99.90;;;;;;5057800;28;20146;-69
2022/04/29 03:32:10;;;;;;;10.20;7.95;;;6.10;99.90;;;;;;5074123;28;20503;-69
2022/04/29 03:34:36;;;;;;;14.77;7.95;;;6.10;99.90;;;;;;5074043;28;20033;-69
2022/04/29 03:37:01;;;;;;;12.68;8.57;;;6.10;99.90;;;;;;5074221;28;20068;-69
2022/04/29 03:39:28;;;;;;;10.63;8.35;;;6.00;99.90;;;;;;5074000;28;20492;-69
2022/04/29 03:41:53;;;;;;;14.90;8.00;;;6.10;99.90;;;;;;5057205;28;20044;-69
2022/04/29 03:44:20;;;;;;;12.90;7.95;;;6.10;99.90;;;;;;5073861;28;20041;-69
2022/04/29 03:46:45;;;;;;;13.15;7.90;;;6.00;99.90;;;;;;5056897;28;20039;-69
2022/04/29 03:51:55;;;;;;;12.30;7.88;;;6.00;99.90;;;;;;5073789;28;20040;-69
2022/04/29 03:54:21;;;;;;;15.73;7.88;;;6.00;99.90;;;;;;5073676;28;20033;-69
2022/04/29 03:56:47;;;;;;;13.43;7.90;;;6.00;99.90;;;;;;5073595;28;20078;-69
2022/04/29 03:59:12;;;;;;;12.38;8.38;;;5.90;99.90;;;;;;5073868;28;20123;-69
2022/04/29 04:01:39;;;;;;;12.05;7.30;;;5.90;99.90;;;;;;5073803;28;20123;-70
2022/04/29 04:04:05;;;;;;;11.73;7.90;;;5.90;99.90;;;;;;5073473;28;20032;-70
2022/04/29 04:09:24;;;;;;;14.15;7.38;;;5.90;99.90;;;;;;5073489;28;20052;-70
2022/04/29 04:11:50;;;;;;;10.10;7.07;;;5.90;99.90;;;;;;5057493;28;20044;-70
2022/04/29 04:14:18;;;;;;;12.82;8.50;;;5.90;99.90;;;;;;5073285;28;20044;-70
2022/04/29 04:16:44;;;;;;;11.23;8.20;;;5.90;99.90;;;;;;5073149;28;20044;-70
2022/04/29 04:19:10;;;;;;;14.75;7.82;;;5.90;99.90;;;;;;5056553;28;20504;-70
2022/04/29 04:21:36;;;;;;;12.13;7.72;;;5.90;99.90;;;;;;5073393;28;20040;-70
2022/04/29 04:24:02;;;;;;;17.67;9.05;;;5.90;99.90;;;;;;5073353;28;20067;-70
2022/04/29 04:26:27;;;;;;;16.38;8.27;;;6.00;99.90;;;;;;5072972;28;20492;-70
2022/04/29 04:28:53;;;;;;;13.30;8.93;;;6.00;99.90;;;;;;5056303;28;20109;-70
2022/04/29 04:31:22;;;;;;;12.13;8.18;;;6.00;99.90;;;;;;5072149;28;20032;-69
2022/04/29 04:33:48;;;;;;;13.73;8.55;;;6.00;99.90;;;;;;5073141;28;20489;-69
2022/04/29 04:36:14;;;;;;;14.07;8.20;;;6.00;99.90;;;;;;5056407;28;20115;-69
2022/04/29 04:38:40;;;;;;;13.43;8.27;;;6.10;99.90;;;;;;5056220;28;20527;-69
2022/04/29 04:41:07;;;;;;;12.90;8.13;;;6.10;99.90;;;;;;5056104;28;20047;-69
2022/04/29 04:43:33;;;;;;;13.15;8.18;;;6.10;99.90;;;;;;5072764;28;20052;-69
2022/04/29 04:45:58;;;;;;;15.23;8.35;;;6.10;99.90;;;;;;5055989;28;20198;-70
2022/04/29 04:48:24;;;;;;;13.80;7.88;;;6.10;99.90;;;;;;5055861;28;20043;-70
2022/04/29 04:50:49;;;;;;;10.32;7.80;;;6.10;99.90;;;;;;5072630;28;20044;-70
2022/04/29 04:53:15;;;;;;;14.38;8.40;;;6.20;99.90;;;;;;5072501;28;20039;-70
2022/04/29 04:55:41;;;;;;;11.27;8.55;;;6.20;99.90;;;;;;5072649;28;20090;-70
2022/04/29 04:58:08;;;;;;;13.18;7.55;;;6.30;99.90;;;;;;5056076;28;20412;-70
2022/04/29 05:00:33;;;;;;;12.07;8.30;;;6.30;99.90;;;;;;5055777;28;20044;-70
2022/04/29 05:02:59;;;;;;;12.90;8.40;;;6.40;99.90;;;;;;5072385;28;20036;-70
2022/04/29 05:05:24;;;;;;;10.57;7.85;;;6.40;99.90;;;;;;5072246;28;20044;-69
2022/04/29 05:07:50;;;;;;;11.88;8.40;;;6.50;99.90;;;;;;5072233;28;20044;-69
2022/04/29 05:10:16;;;;;;;13.30;8.13;;;6.60;99.90;;;;;;5072272;28;20037;-69
2022/04/29 05:12:43;;;;;;;14.48;8.85;;;6.70;99.90;;;;;;5072224;28;20043;-69
2022/04/29 05:15:09;;;;;;;14.57;7.93;;;6.80;99.90;;;;;;5072119;28;20041;-69
2022/04/29 05:17:35;;;;;;;12.80;8.18;;;6.90;99.90;;;;;;5072174;28;20132;-69
2022/04/29 05:20:02;;;;;;;14.80;7.78;;;7.00;99.90;;;;;;5072100;28;20076;-69
2022/04/29 05:22:29;;;;;;;12.90;7.38;;;7.10;99.90;;;;;;5072302;28;20055;-69
2022/04/29 05:24:55;;;;;;;12.25;7.70;;;7.20;99.90;;;;;;5055320;28;20041;-69
2022/04/29 05:27:21;;;;;;;13.00;7.68;;;7.30;99.90;;;;;;5071974;28;20051;-69
2022/04/29 05:29:47;;;;;;;15.70;7.13;;;7.30;99.90;;;;;;5072033;28;20041;-68
2022/04/29 05:32:13;;;;;;;12.73;6.88;;;7.40;99.90;;;;;;5055614;28;20047;-69
2022/04/29 05:34:38;;;;;;;15.38;7.90;;;7.50;99.90;;;;;;5072114;28;20480;-69
2022/04/29 05:37:04;;;;;;;12.80;7.63;;;7.50;99.90;;;;;;5055226;28;20484;-69
2022/04/29 05:42:22;;;;;;;15.75;7.30;;;7.50;99.90;;;;;;5071836;28;20049;-69
2022/04/29 05:44:48;;;;;;;11.80;7.93;;;7.60;99.90;;;;;;5072132;28;20115;-69
2022/04/29 05:47:14;;;;;;;13.70;8.20;;;7.60;99.90;;;;;;5071626;28;20041;-69
2022/04/29 05:49:40;;;;;;;15.32;7.57;;;7.60;99.90;;;;;;5072525;28;20043;-69
2022/04/29 05:52:07;;;;;;;16.80;7.65;;;7.60;99.90;;;;;;5072112;28;20416;-69
2022/04/29 05:54:33;;;;;;;11.07;7.10;;;7.60;99.90;;;;;;5071772;28;20530;-69
2022/04/29 05:56:59;;;;;;;10.00;6.95;;;7.60;99.90;;;;;;5072411;28;20123;-69
2022/04/29 05:59:25;;;;;;;10.75;7.43;;;7.70;99.90;;;;;;5071985;28;20051;-69
2022/04/29 06:01:50;;;;;;;10.95;7.32;;;7.70;99.90;;;;;;5055463;28;20036;-69
2022/04/29 06:04:16;;;;;;;17.30;7.93;;;7.80;99.90;;;;;;5071689;28;20050;-69
2022/04/29 06:06:42;;;;;;;13.75;7.30;;;7.80;99.90;;;;;;5071964;28;20212;-69
2022/04/29 06:09:08;;;;;;;12.43;6.65;;;7.90;99.90;;;;;;5071548;28;20587;-69
2022/04/29 06:11:34;;;;;;;12.48;6.95;;;7.90;99.90;;;;;;5055113;28;20076;-69
2022/04/29 06:13:59;;;;;;;9.82;6.78;;;8.00;99.90;;;;;;5054929;28;20079;-69
2022/04/29 06:16:26;;;;;;;12.38;7.03;;;8.00;99.90;;;;;;5054851;28;20097;-69
2022/04/29 06:18:51;;;;;;;12.43;7.15;;;8.10;99.90;;;;;;5071845;28;20062;-69
2022/04/29 06:21:18;;;;;;;12.18;7.13;;;8.20;99.90;;;;;;5055020;28;20483;-69
2022/04/29 06:23:44;;;;;;;9.70;6.50;;;8.20;99.90;;;;;;5054799;28;20083;-69
2022/04/29 06:26:10;;;;;;;14.48;7.88;;;8.30;99.90;;;;;;5054908;28;20443;-70
2022/04/29 06:28:36;;;;;;;9.45;6.47;;;8.30;99.90;;;;;;5071313;28;20040;-70
2022/04/29 06:31:03;;;;;;;9.70;6.20;;;8.40;99.90;;;;;;5071389;28;20465;-70
2022/04/29 06:33:33;;;;;;;11.35;6.65;;;8.40;99.90;;;;;;5072106;28;20039;-70
2022/04/29 06:35:59;;;;;;;14.63;6.28;;;8.50;99.90;;;;;;5071351;28;20442;-70
2022/04/29 06:38:25;;;;;;;9.82;6.00;;;8.60;99.90;;;;;;5071638;28;20576;-70
2022/04/29 06:40:50;;;;;;;10.52;5.65;;;8.70;99.90;;;;;;5071343;28;20040;-70
2022/04/29 06:43:19;;;;;;;12.00;5.43;;;8.70;99.90;;;;;;5054598;28;20171;-70
2022/04/29 06:45:44;;;;;;;8.63;5.65;;;8.80;99.90;;;;;;5071204;28;20044;-70
2022/04/29 06:48:10;;;;;;;15.85;5.00;;;8.90;99.90;;;;;;5071078;28;20037;-70
2022/04/29 06:50:36;;;;;;;8.90;4.93;;;9.00;99.90;;;;;;5071236;28;20123;-69
2022/04/29 06:53:01;;;;;;;10.73;5.03;;;9.00;99.90;;;;;;5071607;28;20037;-69
2022/04/29 06:55:27;;;;;;;10.48;5.20;;;9.10;99.90;;;;;;5056808;28;20396;-69
2022/04/29 06:57:53;;;;;;;12.73;5.25;;;9.20;99.90;;;;;;5074744;28;20040;-69
2022/04/29 07:00:19;;;;;;;8.70;4.28;;;9.20;99.90;;;;;;5074714;28;20033;-69
2022/04/29 07:02:45;;;;;;;8.63;4.05;;;9.30;99.90;;;;;;5057990;28;20045;-69
2022/04/29 07:05:10;;;;;;;10.50;4.00;;;9.30;99.90;;;;;;5074556;28;20051;-69
2022/04/29 07:07:36;;;;;;;9.77;3.55;;;9.30;99.90;;;;;;5074528;28;20072;-69
2022/04/29 07:10:03;;;;;;;7.10;3.40;;;9.40;99.90;;;;;;5074553;28;20115;-69
2022/04/29 07:12:31;;;;;;;18.98;5.13;;;9.50;99.90;;;;;;5074750;28;20032;-69
2022/04/29 07:14:57;;;;;;;9.15;4.30;;;9.50;99.90;;;;;;5074659;28;20044;-69
2022/04/29 07:17:23;;;;;;;11.75;3.63;;;9.60;99.90;;;;;;5057940;28;20047;-69
2022/04/29 07:19:50;;;;;;;11.35;2.90;;;9.60;99.90;;;;;;5057949;28;20040;-69
2022/04/29 07:22:16;;;;;;;7.13;3.08;;;9.70;99.90;;;;;;5074371;28;20045;-69
2022/04/29 07:24:42;;;;;;;12.40;3.72;;;9.70;99.90;;;;;;5074461;28;20080;-69
2022/04/29 07:27:08;;;;;;;8.07;3.10;;;9.80;99.90;;;;;;5057791;28;20531;-69
2022/04/29 07:29:34;;;;;;;8.70;2.75;;;9.80;99.90;;;;;;5074283;28;20040;-70
2022/04/29 07:31:59;;;;;;;9.32;2.58;;;9.90;99.90;;;;;;5074159;28;20047;-69
2022/04/29 07:41:44;;;;;;;9.75;2.80;;;10.00;99.90;;;;;;5074126;28;20178;-69
2022/04/29 07:42:38;;;;;;;9.75;2.45;;;10.20;99.90;;;;;;5074012;28;20037;-69
2022/04/29 07:45:04;;;;;;;7.55;2.22;;;10.20;99.90;;;;;;5073836;28;20041;-69
2022/04/29 07:47:30;;;;;;;12.68;2.72;;;10.30;99.90;;;;;;5057240;28;20101;-69
2022/04/29 07:49:56;;;;;;;8.93;2.53;;;10.30;99.90;;;;;;5073815;28;20043;-69
2022/04/29 07:52:22;;;;;;;6.80;2.10;;;10.30;99.90;;;;;;5074056;28;20072;-69
2022/04/29 07:54:48;;;;;;;8.15;2.17;;;10.40;99.90;;;;;;5056957;28;20033;-69
2022/04/29 07:57:13;;;;;;;6.13;2.67;;;10.40;99.90;;;;;;5073692;28;20043;-69
2022/04/29 07:59:39;;;;;;;5.10;2.22;;;10.50;99.90;;;;;;5073670;28;20041;-69
2022/04/29 08:02:06;;;;;;;8.15;2.20;;;10.50;99.90;;;;;;5057068;28;20037;-69
2022/04/29 08:04:32;;;;;;;5.80;2.45;;;10.60;99.90;;;;;;5073563;28;20079;-70
2022/04/29 08:06:58;;;;;;;9.27;2.55;;;10.70;99.90;;;;;;5056637;28;20079;-69
2022/04/29 08:09:23;;;;;;;9.77;2.80;;;10.80;99.90;;;;;;5073422;28;20039;-69
2022/04/29 08:11:49;;;;;;;4.63;2.08;;;10.90;99.90;;;;;;5073337;28;20039;-69
2022/04/29 08:14:15;;;;;;;9.13;2.75;;;11.00;99.90;;;;;;5073579;28;20068;-69
2022/04/29 08:16:40;;;;;;;9.30;2.28;;;11.10;99.90;;;;;;5073210;28;20033;-69
2022/04/29 08:19:06;;;;;;;9.10;2.30;;;11.10;99.90;;;;;;5073904;28;20048;-69
2022/04/29 08:21:32;;;;;;;6.55;2.22;;;11.30;99.90;;;;;;5073326;28;20484;-69
2022/04/29 08:23:57;;;;;;;9.10;2.13;;;11.50;99.90;;;;;;5056492;28;20059;-69
2022/04/29 08:26:23;;;;;;;4.75;1.83;;;11.70;99.90;;;;;;5073272;28;20121;-69
2022/04/29 08:28:48;;;;;;;5.93;2.63;;;11.90;99.90;;;;;;5056346;28;20044;-69
2022/04/29 08:31:14;;;;;;;6.38;2.00;;;12.00;99.90;;;;;;5073569;28;20119;-69
2022/04/29 08:33:40;;;;;;;6.70;1.77;;;12.00;99.90;;;;;;5073391;28;20123;-69
2022/04/29 08:36:06;;;;;;;6.40;2.10;;;12.10;99.90;;;;;;5072843;28;20036;-69
2022/04/29 08:38:32;;;;;;;6.78;2.05;;;12.10;99.90;;;;;;5072868;28;20148;-69
2022/04/29 08:41:00;;;;;;;5.95;2.00;;;12.20;99.90;;;;;;5072818;28;20067;-69
2022/04/29 08:43:27;;;;;;;6.00;2.45;;;12.20;99.90;;;;;;5072786;28;20622;-69
2022/04/29 08:45:52;;;;;;;10.43;2.50;;;12.20;99.90;;;;;;5072590;28;20503;-69
2022/04/29 08:48:18;;;;;;;7.35;2.17;;;12.20;99.90;;;;;;5072648;28;20082;-69
2022/04/29 08:50:44;;;;;;;7.47;2.08;;;12.20;99.90;;;;;;5072533;28;20489;-69
2022/04/29 08:53:10;;;;;;;6.10;1.70;;;12.20;99.90;;;;;;5072561;28;20047;-69
2022/04/29 08:58:39;;;;;;;7.10;1.77;;;12.20;99.90;;;;;;5072531;28;20048;-70
2022/04/29 09:01:10;;;;;;;7.15;1.75;;;12.10;99.90;;;;;;5072593;28;20497;-69
2022/04/29 09:03:37;;;;;;;7.22;2.50;;;12.10;99.90;;;;;;5072988;28;20107;-70
2022/04/29 09:06:04;;;;;;;5.13;1.83;;;12.10;99.90;;;;;;5073287;28;20409;-70
2022/04/29 09:08:41;;;;;;;6.35;1.73;;;12.10;99.90;;;;;;5072506;28;20048;-69
2022/04/29 09:11:07;;;;;;;5.63;1.90;;;12.10;99.90;;;;;;5072955;28;20168;-70
2022/04/29 09:13:37;;;;;;;9.43;2.00;;;12.10;99.90;;;;;;5056112;28;20040;-70
2022/04/29 09:16:10;;;;;;;8.25;2.00;;;12.20;99.90;;;;;;5055388;28;20047;-70
2022/04/29 09:18:39;;;;;;;;;;;12.20;99.90;;;;;;5072178;28;20040;-70
2022/04/29 09:21:07;;;;;;;5.00;1.65;;;12.10;99.90;;;;;;5072141;28;19923;-70
2022/04/29 09:23:36;;;;;;;7.32;1.70;;;12.10;99.90;;;;;;5072381;28;20103;-70
2022/04/29 09:26:05;;;;;;;4.53;1.75;;;12.10;99.90;;;;;;5071976;28;20041;-70
2022/04/29 09:28:33;;;;;;;6.60;1.80;;;12.10;99.90;;;;;;5071900;28;20062;-70
2022/04/29 09:30:59;;;;;;;6.40;2.10;;;12.20;99.90;;;;;;5055368;28;20040;-70
2022/04/29 09:33:26;;;;;;;6.93;1.52;;;12.20;99.90;;;;;;5071983;28;20036;-70
2022/04/29 09:35:53;;;;;;;5.82;1.52;;;12.30;99.90;;;;;;5055487;28;20036;-70
2022/04/29 09:41:05;;;;;;;6.20;1.88;;;12.30;99.90;;;;;;5071916;28;20139;-70
2022/04/29 09:43:36;;;;;;;7.53;1.58;;;12.30;99.90;;;;;;5071878;28;20511;-70
2022/04/29 09:46:22;;;;;;;4.88;1.50;;;12.40;99.90;;;;;;5072083;28;20040;-70
2022/04/29 09:48:51;;;;;;;3.85;1.48;;;12.50;99.90;;;;;;5055037;28;20041;-70
2022/04/29 09:51:37;;;;;;;7.55;1.95;;;12.60;99.90;;;;;;5071762;28;20039;-70
2022/04/29 09:54:17;;;;;;;5.00;1.50;;;12.60;99.90;;;;;;5071822;28;20048;-70
2022/04/29 09:57:08;;;;;;;4.03;1.30;;;12.60;99.90;;;;;;5054959;28;20086;-70
2022/04/29 09:59:34;;;;;;;6.65;1.83;;;12.60;99.90;;;;;;5071745;28;20036;-70
2022/04/29 10:02:01;;;;;;;8.55;4.10;;;12.60;99.90;;;;;;5071924;28;20068;-70
2022/04/29 10:04:30;;;;;;;8.30;1.95;;;12.70;99.90;;;;;;5054974;28;20119;-70
2022/04/29 10:06:56;;;;;;;6.22;1.75;;;12.70;99.90;;;;;;5071866;28;20040;-70
2022/04/29 10:09:24;;;;;;;5.72;1.67;;;12.70;99.90;;;;;;5071534;28;20082;-70
2022/04/29 10:11:52;;;;;;;8.55;1.77;;;12.70;99.90;;;;;;5071550;28;20413;-70
2022/04/29 10:14:18;;;;;;;7.13;1.63;;;12.60;99.90;;;;;;5071853;28;20389;-70
2022/04/29 10:21:15;;;;;;;7.10;1.70;;;12.60;99.90;;;;;;5071496;28;20117;-70
2022/04/29 10:22:18;;;;;;;7.43;1.55;;;12.40;99.90;;;;;;5071375;28;20087;-70
2022/04/29 10:24:44;;;;;;;7.55;1.55;;;12.40;99.90;;;;;;5071423;28;20048;-70
2022/04/29 10:27:11;;;;;;;6.63;1.67;;;12.30;99.90;;;;;;5071409;28;20043;-70
2022/04/29 10:29:37;;;;;;;6.63;1.40;;;12.30;99.90;;;;;;5071898;28;20036;-70
2022/04/29 10:32:05;;;;;;;5.53;1.38;;;12.30;99.90;;;;;;5075561;28;20411;-70
2022/04/29 10:34:31;;;;;;;3.55;1.23;;;12.30;99.90;;;;;;5075279;28;20041;-70
2022/04/29 10:36:58;;;;;;;4.22;1.25;;;12.30;99.90;;;;;;5075108;28;20040;-70
2022/04/29 10:39:24;;;;;;;4.65;1.55;;;12.30;99.90;;;;;;5075129;28;20136;-70
2022/04/29 10:42:04;;;;;;;6.38;1.40;;;12.30;99.90;;;;;;5075160;28;20075;-70
2022/04/29 10:44:31;;;;;;;6.07;1.95;;;12.30;99.90;;;;;;5058440;28;20086;-70
2022/04/29 10:47:16;;;;;;;7.28;1.73;;;12.30;99.90;;;;;;5074809;28;20041;-70
2022/04/29 10:49:42;;;;;;;7.57;2.05;;;12.30;99.90;;;;;;5074839;28;20049;-70
2022/04/29 10:52:24;;;;;;;7.13;2.30;;;12.30;99.90;;;;;;5074921;28;20041;-70
2022/04/29 10:54:56;;;;;;;5.43;2.10;;;12.30;99.90;;;;;;5058727;28;20103;-70
2022/04/29 10:57:43;;;;;;;4.82;2.10;;;12.30;99.90;;;;;;5058463;28;20047;-70
2022/04/29 11:00:13;;;;;;;7.05;2.40;;;12.30;99.90;;;;;;5058125;28;20044;-70
2022/04/29 11:02:39;;;;;;;7.05;2.90;;;12.30;99.90;;;;;;5074628;28;20484;-70
2022/04/29 11:05:07;;;;;;;10.50;2.95;;;12.40;99.90;;;;;;5074590;28;20033;-70
2022/04/29 11:07:44;;;;;;;7.75;1.63;;;12.50;99.90;;;;;;5074754;28;20131;-70
2022/04/29 11:10:53;;;;;;;7.35;1.70;;;12.50;99.90;;;;;;5074615;28;20039;-69
2022/04/29 11:13:21;;;;;;;4.65;2.33;;;12.50;99.90;;;;;;5074443;28;20086;-69
2022/04/29 11:15:47;;;;;;;7.20;2.03;;;12.50;99.90;;;;;;5074691;28;20105;-69
2022/04/29 11:18:19;;;;;;;5.25;2.13;;;12.50;99.90;;;;;;5074456;28;20510;-69
2022/04/29 11:20:47;;;;;;;4.40;1.80;;;12.50;99.90;;;;;;5074673;28;20095;-69
2022/04/29 11:26:10;;;;;;;8.88;3.65;;;12.60;99.90;;;;;;5074187;28;20044;-69
2022/04/29 11:28:36;;;;;;;7.38;2.35;;;12.60;99.90;;;;;;5074135;28;20052;-70
2022/04/29 11:31:05;;;;;;;11.25;3.70;;;12.70;99.90;;;;;;5057481;28;20123;-69
2022/04/29 11:33:31;;;;;;;7.90;2.40;;;12.80;99.90;;;;;;5057704;28;20028;-70
2022/04/29 11:36:03;;;;;;;8.00;2.50;;;12.80;99.50;;;;;;5057692;28;20561;-70
2022/04/29 11:38:30;;;;;;;11.30;2.15;;;12.90;99.80;;;;;;5074079;28;20536;-69
2022/04/29 11:40:57;;;;;;;4.13;1.95;;;13.00;99.50;;;;;;5073691;28;20063;-69
2022/04/29 11:43:23;;;;;;;6.65;2.30;;;13.10;99.60;;;;;;5073945;28;20527;-69
2022/04/29 11:46:05;;;;;;;5.90;2.53;;;13.20;99.50;;;;;;5074112;28;20104;-69
2022/04/29 11:48:32;;;;;;;5.95;2.53;;;13.30;97.80;;;;;;5073662;28;20080;-69
2022/04/29 11:50:58;;;;;;;4.47;2.00;;;13.30;97.90;;;;;;5074075;28;20040;-69
2022/04/29 11:53:24;;;;;;;8.50;2.10;;;13.40;98.20;;;;;;5073745;28;20044;-70
2022/04/29 11:55:51;;;;;;;8.20;2.40;;;13.40;98.30;;;;;;5074186;28;20093;-70
2022/04/29 11:58:17;;;;;;;6.70;2.50;;;13.40;97.10;;;;;;5073938;28;20120;-69
2022/04/29 12:00:49;;;;;;;9.68;2.25;;;13.50;97.10;;;;;;5073672;28;20513;-69
2022/04/29 12:03:20;;;;;;;9.75;2.70;;;13.50;96.60;;;;;;5073628;28;20036;-69
2022/04/29 12:05:45;;;;;;;6.60;2.53;;;13.40;96.10;;;;;;5073421;28;20040;-70
2022/04/29 12:08:12;;;;;;;8.13;2.67;;;13.40;96.40;;;;;;5073575;28;20043;-70
2022/04/29 12:10:41;;;;;;;8.75;2.67;;;13.40;96.60;;;;;;5073463;28;20522;-70
2022/04/29 12:13:06;;;;;;;5.95;2.58;;;13.30;96.10;;;;;;5073356;28;20446;-69
2022/04/29 12:15:37;;;;;;;6.68;2.53;;;13.30;97.60;;;;;;5056829;28;20119;-70
2022/04/29 12:18:11;;;;;;;5.95;2.60;;;13.30;97.50;;;;;;5073266;28;20086;-70
2022/04/29 12:20:37;;;;;;;10.25;2.50;;;13.30;97.90;;;;;;5073506;28;20044;-70
2022/04/29 12:23:19;;;;;;;4.97;2.40;;;13.30;97.60;;;;;;5073505;28;20037;-70
2022/04/29 12:25:47;;;;;;;7.95;2.80;;;13.40;96.30;;;;;;5056417;28;20037;-69
2022/04/29 12:28:19;;;;;;;8.27;2.40;;;13.40;95.10;;;;;;5073054;28;20036;-69
2022/04/29 12:36:59;;;;;;;5.22;2.40;;;13.60;95.00;;;;;;5072822;28;20037;-69
2022/04/29 12:39:39;;;;;;;4.90;2.35;;;13.70;95.50;;;;;;5056226;28;20507;-70
2022/04/29 12:42:06;;;;;;;6.15;2.72;;;13.80;93.00;;;;;;5072820;28;20492;-70
2022/04/29 12:47:47;;;;;;;4.60;2.40;;;13.70;93.40;;;;;;5072548;28;20123;-70
2022/04/29 12:50:45;;;;;;;5.90;2.38;;;13.60;93.00;;;;;;5072990;28;20414;-70
2022/04/29 12:53:16;;;;;;;7.90;2.28;;;13.60;92.00;;;;;;5072278;28;20098;-70
2022/04/29 12:55:42;;;;;;;4.53;2.42;;;13.50;93.60;;;;;;5055795;28;20072;-70
2022/04/29 12:58:16;;;;;;;6.25;2.50;;;13.50;94.10;;;;;;5056095;28;20068;-70
2022/04/29 13:00:59;;;;;;;4.72;2.08;;;13.60;93.40;;;;;;5056019;28;20045;-70
2022/04/29 13:03:28;;;;;;;8.23;2.45;;;13.70;93.00;;;;;;5055807;28;20048;-70
2022/04/29 13:05:54;;;;;;;5.15;2.60;;;13.80;93.50;;;;;;5055668;28;20048;-70
2022/04/29 13:08:20;;;;;;;4.65;2.40;;;13.90;92.10;;;;;;5055654;28;20036;-70
2022/04/29 13:10:51;;;;;;;6.43;2.17;;;14.10;90.30;;;;;;5055590;28;20039;-70
2022/04/29 13:13:22;;;;;;;4.80;2.20;;;14.30;91.60;;;;;;5055580;28;20377;-70
2022/04/29 13:15:48;;;;;;;7.05;2.45;;;14.40;87.30;;;;;;5055544;28;20547;-70
2022/04/29 13:18:15;;;;;;;4.60;2.42;;;14.60;88.10;;;;;;5072461;28;20037;-70
2022/04/29 13:20:42;;;;;;;7.38;2.33;;;14.70;84.00;;;;;;5072128;28;20492;-70
2022/04/29 13:23:10;;;;;;;7.70;2.40;;;14.80;80.30;;;;;;5072105;28;20044;-70
2022/04/29 13:25:40;;;;;;;6.47;2.28;;;14.90;77.80;;;;;;5072281;28;20172;-70
2022/04/29 13:28:06;;;;;;;6.45;2.50;;;15.10;78.30;;;;;;5073129;28;20376;-70